createdAt,value
2023-05-25T00:00:01.952Z,17.53
2023-05-25T00:01:36.590Z,17.53
2023-05-25T00:03:10.176Z,17.56
2023-05-25T00:04:42.426Z,17.57
2023-05-25T00:06:15.751Z,17.61
2023-05-25T00:07:47.774Z,17.62
2023-05-25T00:09:19.745Z,17.61
2023-05-25T00:10:51.725Z,17.56
2023-05-25T00:12:23.375Z,17.54
2023-05-25T00:13:55.098Z,17.54
2023-05-25T00:15:26.982Z,17.53
2023-05-25T00:16:58.769Z,17.50
2023-05-25T00:18:30.334Z,17.48
2023-05-25T00:20:09.101Z,17.42
2023-05-25T00:21:42.527Z,17.39
2023-05-25T00:23:14.092Z,17.33
2023-05-25T00:24:45.663Z,17.29
2023-05-25T00:26:17.617Z,17.23
2023-05-25T00:27:49.348Z,17.19
2023-05-25T00:29:21.407Z,17.15
2023-05-25T00:30:53.109Z,17.13
2023-05-25T00:32:26.081Z,17.10
2023-05-25T00:33:57.812Z,17.08
2023-05-25T00:35:29.660Z,17.06
2023-05-25T00:37:01.375Z,17.03
2023-05-25T00:38:33.065Z,17.02
2023-05-25T00:40:07.381Z,17.00
2023-05-25T00:41:41.749Z,17.00
2023-05-25T00:43:13.759Z,17.02
2023-05-25T00:44:45.458Z,17.00
2023-05-25T00:46:17.631Z,16.98
2023-05-25T00:47:51.892Z,16.95
2023-05-25T00:49:24.060Z,16.95
2023-05-25T00:50:58.173Z,16.93
2023-05-25T00:52:30.139Z,16.92
2023-05-25T00:54:02.064Z,16.86
2023-05-25T00:55:38.329Z,16.80
2023-05-25T00:57:09.889Z,16.77
2023-05-25T00:58:42.035Z,16.78
2023-05-25T01:00:14.092Z,16.81
2023-05-25T01:01:46.177Z,16.84
2023-05-25T01:03:22.092Z,16.87
2023-05-25T01:04:54.537Z,16.84
2023-05-25T01:06:27.191Z,16.80
2023-05-25T01:07:59.596Z,16.80
2023-05-25T01:09:31.898Z,16.78
2023-05-25T01:11:03.605Z,16.80
2023-05-25T01:12:38.903Z,16.80
2023-05-25T01:14:11.700Z,16.81
2023-05-25T01:15:43.524Z,16.83
2023-05-25T01:17:16.009Z,16.86
2023-05-25T01:18:48.478Z,16.90
2023-05-25T01:20:20.272Z,16.94
2023-05-25T01:21:57.921Z,16.93
2023-05-25T01:23:32.020Z,16.88
2023-05-25T01:25:04.493Z,16.81
2023-05-25T01:26:37.944Z,16.71
2023-05-25T01:28:15.852Z,16.65
2023-05-25T01:29:47.581Z,16.62
2023-05-25T01:31:21.644Z,16.64
2023-05-25T01:32:53.745Z,16.66
2023-05-25T01:34:26.563Z,16.65
2023-05-25T01:35:58.644Z,16.65
2023-05-25T01:37:31.602Z,16.64
2023-05-25T01:39:03.958Z,16.64
2023-05-25T01:40:36.059Z,16.64
2023-05-25T01:42:07.928Z,16.63
2023-05-25T01:43:39.633Z,16.64
2023-05-25T01:45:11.836Z,16.64
2023-05-25T01:46:44.748Z,16.63
2023-05-25T01:48:21.343Z,16.59
2023-05-25T01:49:56.840Z,16.55
2023-05-25T01:51:33.129Z,16.49
2023-05-25T01:53:06.488Z,16.45
2023-05-25T01:54:38.924Z,16.43
2023-05-25T01:56:12.098Z,16.44
2023-05-25T01:57:44.180Z,16.48
2023-05-25T01:59:15.994Z,16.47
2023-05-25T02:00:48.185Z,16.49
2023-05-25T02:02:19.935Z,16.49
2023-05-25T02:03:51.703Z,16.45
2023-05-25T02:05:23.389Z,16.43
2023-05-25T02:06:54.916Z,16.43
2023-05-25T02:08:27.238Z,16.41
2023-05-25T02:09:59.280Z,16.41
2023-05-25T02:11:32.417Z,16.41
2023-05-25T02:13:04.078Z,16.37
2023-05-25T02:14:35.743Z,16.31
2023-05-25T02:16:08.095Z,16.27
2023-05-25T02:17:40.295Z,16.21
2023-05-25T02:19:14.992Z,16.14
2023-05-25T02:20:47.922Z,16.10
2023-05-25T02:22:19.617Z,16.08
2023-05-25T02:23:51.298Z,16.08
2023-05-25T02:25:22.848Z,16.10
2023-05-25T02:26:55.122Z,16.10
2023-05-25T02:28:27.008Z,16.13
2023-05-25T02:29:58.569Z,16.15
2023-05-25T02:31:30.306Z,16.15
2023-05-25T02:33:02.715Z,16.13
2023-05-25T02:34:34.430Z,16.14
2023-05-25T02:36:06.474Z,16.14
2023-05-25T02:37:38.253Z,16.12
2023-05-25T02:39:10.452Z,16.10
2023-05-25T02:40:42.125Z,16.05
2023-05-25T02:42:13.754Z,16.01
2023-05-25T02:43:45.923Z,15.94
2023-05-25T02:45:17.676Z,15.89
2023-05-25T02:46:49.369Z,15.81
2023-05-25T02:48:22.279Z,15.79
2023-05-25T02:49:53.922Z,15.75
2023-05-25T02:51:26.451Z,15.71
2023-05-25T02:52:58.122Z,15.64
2023-05-25T02:54:29.851Z,15.58
2023-05-25T02:56:02.335Z,15.56
2023-05-25T02:57:34.220Z,15.53
2023-05-25T02:59:06.058Z,15.52
2023-05-25T03:00:37.997Z,15.54
2023-05-25T03:02:09.712Z,15.57
2023-05-25T03:03:41.810Z,15.60
2023-05-25T03:05:13.626Z,15.60
2023-05-25T03:06:45.419Z,15.60
2023-05-25T03:08:18.242Z,15.64
2023-05-25T03:09:50.232Z,15.65
2023-05-25T03:11:22.741Z,15.68
2023-05-25T03:12:54.631Z,15.69
2023-05-25T03:14:26.298Z,15.69
2023-05-25T03:15:58.123Z,15.70
2023-05-25T03:17:29.904Z,15.67
2023-05-25T03:19:02.449Z,15.63
2023-05-25T03:20:35.026Z,15.62
2023-05-25T03:22:07.801Z,15.61
2023-05-25T03:23:39.401Z,15.59
2023-05-25T03:25:13.417Z,15.56
2023-05-25T03:26:44.986Z,15.55
2023-05-25T03:28:16.786Z,15.55
2023-05-25T03:29:52.068Z,15.59
2023-05-25T03:31:23.717Z,15.63
2023-05-25T03:32:55.680Z,15.66
2023-05-25T03:34:28.438Z,15.68
2023-05-25T03:36:00.074Z,15.70
2023-05-25T03:37:31.630Z,15.74
2023-05-25T03:39:03.763Z,15.76
2023-05-25T03:40:35.645Z,15.77
2023-05-25T03:42:07.333Z,15.79
2023-05-25T03:43:39.014Z,15.82
2023-05-25T03:45:11.315Z,15.91
2023-05-25T03:46:43.145Z,15.99
2023-05-25T03:48:14.872Z,16.07
2023-05-25T03:49:46.728Z,16.18
2023-05-25T03:51:18.452Z,16.25
2023-05-25T03:52:50.956Z,16.31
2023-05-25T03:54:23.079Z,16.40
2023-05-25T03:55:54.646Z,16.46
2023-05-25T03:57:26.218Z,16.49
2023-05-25T03:58:58.178Z,16.49
2023-05-25T04:00:29.862Z,16.49
2023-05-25T04:02:01.383Z,16.49
2023-05-25T04:03:33.880Z,16.52
2023-05-25T04:05:08.061Z,16.56
2023-05-25T04:06:40.210Z,16.61
2023-05-25T04:08:14.628Z,16.66
2023-05-25T04:09:46.307Z,16.71
2023-05-25T04:11:18.675Z,16.79
2023-05-25T04:12:52.005Z,16.86
2023-05-25T04:14:24.280Z,16.91
2023-05-25T04:15:56.227Z,16.95
2023-05-25T04:17:28.648Z,17.01
2023-05-25T04:19:00.685Z,17.05
2023-05-25T04:20:32.724Z,17.12
2023-05-25T04:22:04.596Z,17.20
2023-05-25T04:23:37.038Z,17.24
2023-05-25T04:25:08.884Z,17.30
2023-05-25T04:26:42.049Z,17.36
2023-05-25T04:28:13.745Z,17.38
2023-05-25T04:29:45.898Z,17.38
2023-05-25T04:31:17.688Z,17.36
2023-05-25T04:32:49.574Z,17.36
2023-05-25T04:34:22.209Z,17.47
2023-05-25T04:35:54.532Z,17.56
2023-05-25T04:37:31.015Z,17.65
2023-05-25T04:39:03.317Z,17.76
2023-05-25T04:40:36.087Z,17.83
2023-05-25T04:42:08.066Z,17.92
2023-05-25T04:43:46.354Z,18.00
2023-05-25T04:45:29.367Z,18.04
2023-05-25T04:47:01.744Z,18.07
2023-05-25T04:48:34.536Z,18.10
2023-05-25T04:50:06.693Z,18.14
2023-05-25T04:51:38.389Z,18.23
2023-05-25T04:53:10.116Z,18.34
2023-05-25T04:54:42.133Z,18.42
2023-05-25T04:56:13.777Z,18.46
2023-05-25T04:57:45.352Z,18.54
2023-05-25T04:59:16.963Z,18.65
2023-05-25T05:00:49.746Z,18.78
2023-05-25T05:02:22.455Z,18.85
2023-05-25T05:03:54.334Z,18.90
2023-05-25T05:05:26.050Z,19.01
2023-05-25T05:06:59.109Z,19.15
2023-05-25T05:08:31.297Z,19.24
2023-05-25T05:10:03.106Z,19.25
2023-05-25T05:11:34.865Z,19.26
2023-05-25T05:13:06.492Z,19.27
2023-05-25T05:14:38.114Z,19.30
2023-05-25T05:16:09.881Z,19.31
2023-05-25T05:17:42.187Z,19.35
2023-05-25T05:19:13.885Z,19.38
2023-05-25T05:20:46.243Z,19.44
2023-05-25T05:22:18.496Z,19.47
2023-05-25T05:23:50.408Z,19.44
2023-05-25T05:25:23.269Z,19.43
2023-05-25T05:26:58.962Z,19.31
2023-05-25T05:28:32.229Z,19.28
2023-05-25T05:30:04.053Z,19.15
2023-05-25T05:31:37.615Z,19.06
2023-05-25T05:33:09.731Z,18.98
2023-05-25T05:34:41.487Z,18.93
2023-05-25T05:36:13.152Z,18.91
2023-05-25T05:37:44.767Z,18.85
2023-05-25T05:39:16.902Z,18.95
2023-05-25T05:40:48.483Z,19.03
2023-05-25T05:42:20.381Z,19.16
2023-05-25T05:43:52.335Z,19.32
2023-05-25T05:45:25.373Z,19.54
2023-05-25T05:47:01.324Z,19.65
2023-05-25T05:48:33.765Z,19.79
2023-05-25T05:50:05.912Z,19.93
2023-05-25T05:51:37.676Z,20.04
2023-05-25T05:53:10.241Z,20.18
2023-05-25T05:54:41.823Z,20.24
2023-05-25T05:56:17.507Z,20.31
2023-05-25T05:57:49.490Z,20.29
2023-05-25T05:59:21.808Z,20.27
2023-05-25T06:00:57.058Z,20.32
2023-05-25T06:02:29.006Z,20.33
2023-05-25T06:04:00.814Z,20.30
2023-05-25T06:05:32.438Z,20.34
2023-05-25T06:07:04.143Z,20.46
2023-05-25T06:08:36.077Z,20.66
2023-05-25T06:10:08.115Z,20.88
2023-05-25T06:11:40.543Z,21.07
2023-05-25T06:13:12.168Z,21.25
2023-05-25T06:14:43.839Z,21.47
2023-05-25T06:16:15.795Z,21.62
2023-05-25T06:17:47.492Z,21.83
2023-05-25T06:19:19.112Z,21.98
2023-05-25T06:20:51.637Z,22.21
2023-05-25T06:22:25.830Z,22.44
2023-05-25T06:23:58.418Z,22.62
2023-05-25T06:25:30.199Z,22.73
2023-05-25T06:27:03.489Z,22.89
2023-05-25T06:28:35.980Z,23.05
2023-05-25T06:30:08.279Z,23.20
2023-05-25T06:31:43.219Z,23.32
2023-05-25T06:33:15.452Z,23.36
2023-05-25T06:34:47.496Z,23.46
2023-05-25T06:36:19.111Z,23.61
2023-05-25T06:37:50.802Z,23.77
2023-05-25T06:39:23.100Z,23.92
2023-05-25T06:40:55.845Z,24.04
2023-05-25T06:42:28.817Z,24.15
2023-05-25T06:44:00.706Z,24.31
2023-05-25T06:45:32.794Z,24.42
2023-05-25T06:47:06.724Z,24.47
2023-05-25T06:48:39.207Z,24.61
2023-05-25T06:50:12.770Z,24.78
2023-05-25T06:51:44.418Z,24.85
2023-05-25T06:53:20.169Z,24.89
2023-05-25T06:54:52.398Z,24.93
2023-05-25T06:56:24.539Z,24.95
2023-05-25T06:57:56.506Z,24.86
2023-05-25T06:59:28.604Z,24.79
2023-05-25T07:01:01.351Z,24.71
2023-05-25T07:02:33.323Z,24.54
2023-05-25T07:04:05.324Z,24.38
2023-05-25T07:05:37.927Z,24.29
2023-05-25T07:07:09.866Z,24.32
2023-05-25T07:08:41.727Z,24.29
2023-05-25T07:10:13.806Z,24.28
2023-05-25T07:11:45.648Z,24.26
2023-05-25T07:13:17.416Z,24.16
2023-05-25T07:14:49.445Z,23.95
2023-05-25T07:16:21.848Z,23.88
2023-05-25T07:17:54.176Z,23.81
2023-05-25T07:19:27.464Z,23.72
2023-05-25T07:21:00.055Z,23.65
2023-05-25T07:22:32.164Z,23.72
2023-05-25T07:24:04.172Z,23.74
2023-05-25T07:25:38.240Z,23.74
2023-05-25T07:27:10.279Z,23.80
2023-05-25T07:28:42.399Z,23.91
2023-05-25T07:30:14.658Z,23.99
2023-05-25T07:31:47.236Z,24.04
2023-05-25T07:33:19.748Z,24.08
2023-05-25T07:34:51.673Z,24.18
2023-05-25T07:36:25.186Z,24.28
2023-05-25T07:38:00.959Z,24.31
2023-05-25T07:39:32.761Z,24.38
2023-05-25T07:41:04.622Z,24.48
2023-05-25T07:42:36.939Z,24.53
2023-05-25T07:44:08.696Z,24.61
2023-05-25T07:45:40.923Z,24.63
2023-05-25T07:47:13.134Z,24.63
2023-05-25T07:48:44.907Z,24.57
2023-05-25T07:50:17.085Z,24.48
2023-05-25T07:51:48.651Z,24.42
2023-05-25T07:53:20.341Z,24.31
2023-05-25T07:54:52.300Z,24.26
2023-05-25T07:56:24.190Z,24.12
2023-05-25T07:57:56.457Z,23.98
2023-05-25T07:59:29.450Z,23.83
2023-05-25T08:01:01.229Z,23.70
2023-05-25T08:02:33.133Z,23.58
2023-05-25T08:04:05.486Z,23.48
2023-05-25T08:05:38.979Z,23.43
2023-05-25T08:07:11.424Z,23.39
2023-05-25T08:08:45.118Z,23.21
2023-05-25T08:10:17.131Z,23.07
2023-05-25T08:11:48.857Z,23.00
2023-05-25T08:13:20.828Z,22.90
2023-05-25T08:14:52.498Z,22.83
2023-05-25T08:16:24.207Z,22.66
2023-05-25T08:17:56.896Z,22.54
2023-05-25T08:19:31.343Z,22.44
2023-05-25T08:21:03.042Z,22.35
2023-05-25T08:22:37.842Z,22.30
2023-05-25T08:24:10.415Z,22.17
2023-05-25T08:25:42.488Z,22.08
2023-05-25T08:27:14.211Z,22.07
2023-05-25T08:28:45.918Z,22.05
2023-05-25T08:30:17.538Z,21.99
2023-05-25T08:31:50.423Z,21.82
2023-05-25T08:33:23.471Z,21.58
2023-05-25T08:34:57.267Z,21.35
2023-05-25T08:36:29.298Z,21.09
2023-05-25T08:38:00.949Z,20.81
2023-05-25T08:39:34.195Z,20.57
2023-05-25T08:41:06.913Z,20.39
2023-05-25T08:42:39.060Z,20.13
2023-05-25T08:44:10.859Z,19.91
2023-05-25T08:45:49.617Z,19.68
2023-05-25T08:47:24.442Z,19.44
2023-05-25T08:48:57.748Z,19.30
2023-05-25T08:50:29.584Z,19.11
2023-05-25T08:52:03.504Z,18.98
2023-05-25T08:53:36.479Z,18.88
2023-05-25T08:55:09.070Z,18.75
2023-05-25T08:57:01.561Z,18.64
2023-05-25T08:58:33.650Z,18.50
2023-05-25T09:00:13.034Z,18.40
2023-05-25T09:01:45.843Z,18.33
2023-05-25T09:03:23.080Z,18.28
2023-05-25T09:04:55.292Z,18.28
2023-05-25T09:06:29.801Z,18.26
2023-05-25T09:08:01.781Z,18.25
2023-05-25T09:09:35.555Z,18.22
2023-05-25T09:11:07.808Z,18.20
2023-05-25T09:12:39.662Z,18.19
2023-05-25T09:14:11.912Z,18.14
2023-05-25T09:15:43.853Z,18.13
2023-05-25T09:17:16.456Z,18.16
2023-05-25T09:21:15.439Z,18.26
2023-05-25T09:22:48.036Z,18.32
2023-05-25T09:53:26.833Z,20.49
2023-05-25T09:54:58.562Z,20.56
2023-05-25T09:56:31.841Z,20.65
2023-05-25T09:58:03.415Z,20.73
2023-05-25T09:59:35.084Z,20.80
2023-05-25T10:01:08.437Z,20.88
2023-05-25T10:02:40.415Z,20.86
2023-05-25T10:04:12.161Z,20.87
2023-05-25T10:05:44.649Z,20.90
2023-05-25T10:07:16.630Z,20.91
2023-05-25T10:08:49.085Z,20.95
2023-05-25T10:10:20.743Z,21.07
2023-05-25T10:11:52.754Z,21.12
2023-05-25T10:13:24.403Z,21.17
2023-05-25T10:14:56.298Z,21.23
2023-05-25T10:16:29.872Z,21.28
2023-05-25T10:18:01.695Z,21.34
2023-05-25T10:19:47.435Z,21.42
2023-05-25T10:21:19.429Z,21.49
2023-05-25T10:23:03.400Z,21.53
2023-05-25T10:24:36.866Z,21.52
2023-05-25T10:26:09.381Z,21.46
2023-05-25T10:27:41.932Z,21.37
2023-05-25T10:29:14.517Z,21.30
2023-05-25T10:30:46.680Z,21.25
2023-05-25T10:32:19.199Z,21.24
2023-05-25T10:33:52.543Z,21.30
2023-05-25T10:35:24.728Z,21.33
2023-05-25T10:36:56.588Z,21.39
2023-05-25T10:38:30.906Z,21.46
2023-05-25T10:40:02.953Z,21.53
2023-05-25T10:41:34.565Z,21.57
2023-05-25T10:43:06.462Z,21.67
2023-05-25T10:44:39.161Z,21.77
2023-05-25T10:46:13.249Z,21.88
2023-05-25T10:47:47.022Z,22.00
2023-05-25T10:49:32.124Z,22.15
2023-05-25T10:51:04.626Z,22.33
2023-05-25T10:52:36.524Z,22.44
2023-05-25T10:54:08.186Z,22.55
2023-05-25T10:55:49.663Z,22.56
2023-05-25T10:57:22.381Z,22.56
2023-05-25T10:58:54.223Z,22.54
2023-05-25T11:00:26.775Z,22.54
2023-05-25T11:01:58.485Z,22.53
2023-05-25T11:03:49.112Z,22.48
2023-05-25T11:05:27.642Z,22.44
2023-05-25T11:07:02.573Z,22.49
2023-05-25T11:08:50.883Z,22.46
2023-05-25T11:10:42.112Z,22.39
2023-05-25T11:12:22.976Z,22.41
2023-05-25T11:13:54.614Z,22.51
2023-05-25T11:15:26.820Z,22.62
2023-05-25T11:17:05.535Z,22.73
2023-05-25T11:18:38.315Z,22.95
2023-05-25T11:20:11.241Z,23.08
2023-05-25T11:21:43.747Z,23.26
2023-05-25T11:23:24.454Z,23.45
2023-05-25T11:24:56.194Z,23.59
2023-05-25T11:26:29.275Z,23.69
2023-05-25T11:28:04.763Z,23.68
2023-05-25T11:29:37.650Z,23.74
2023-05-25T11:31:09.495Z,23.60
2023-05-25T11:32:47.172Z,23.54
2023-05-25T11:34:19.429Z,23.41
2023-05-25T11:35:51.837Z,23.49
2023-05-25T11:37:29.111Z,23.67
2023-05-25T11:39:11.670Z,23.82
2023-05-25T11:40:49.769Z,23.92
2023-05-25T11:42:22.277Z,24.00
2023-05-25T11:43:54.094Z,24.04
2023-05-25T11:45:26.688Z,24.07
2023-05-25T11:46:58.717Z,24.07
2023-05-25T11:48:30.392Z,24.10
2023-05-25T11:50:02.137Z,23.92
2023-05-25T11:51:33.841Z,23.73
2023-05-25T11:53:07.300Z,23.65
2023-05-25T11:54:41.639Z,23.55
2023-05-25T11:56:18.090Z,23.39
2023-05-25T11:57:56.950Z,23.35
2023-05-25T11:59:30.596Z,23.31
2023-05-25T12:01:17.612Z,23.23
2023-05-25T12:02:49.655Z,23.16
2023-05-25T12:04:24.166Z,23.13
2023-05-25T12:05:57.199Z,23.06
2023-05-25T12:07:29.146Z,23.07
2023-05-25T12:09:02.070Z,23.11
2023-05-25T12:10:33.897Z,23.11
2023-05-25T12:12:06.111Z,23.04
2023-05-25T12:13:40.811Z,23.06
2023-05-25T12:15:20.525Z,23.05
2023-05-25T12:16:54.018Z,22.97
2023-05-25T12:18:29.207Z,22.89
2023-05-25T12:20:01.134Z,22.81
2023-05-25T12:21:33.005Z,22.79
2023-05-25T12:23:04.710Z,22.75
2023-05-25T12:24:36.568Z,22.73
2023-05-25T12:26:12.136Z,22.73
2023-05-25T12:27:44.206Z,22.81
2023-05-25T12:29:16.480Z,22.84
2023-05-25T12:30:49.229Z,22.91
2023-05-25T12:32:21.141Z,22.96
2023-05-25T12:34:09.839Z,23.03
2023-05-25T12:35:45.592Z,23.12
2023-05-25T12:37:19.648Z,23.20
2023-05-25T12:39:00.749Z,23.26
2023-05-25T12:40:32.388Z,23.28
2023-05-25T12:42:04.225Z,23.27
2023-05-25T12:43:43.928Z,23.27
2023-05-25T12:45:15.961Z,23.27
2023-05-25T12:46:48.556Z,23.33
2023-05-25T12:48:26.577Z,23.39
2023-05-25T12:50:14.516Z,23.49
2023-05-25T12:51:46.190Z,23.56
2023-05-25T12:53:17.887Z,23.65
2023-05-25T12:54:50.366Z,23.72
2023-05-25T12:56:22.851Z,23.82
2023-05-25T12:57:58.434Z,23.93
2023-05-25T12:59:31.113Z,24.01
2023-05-25T13:01:04.783Z,24.07
2023-05-25T13:02:36.477Z,24.17
2023-05-25T13:04:08.162Z,24.22
2023-05-25T13:05:40.357Z,24.28
2023-05-25T13:07:13.193Z,24.39
2023-05-25T13:08:45.510Z,24.56
2023-05-25T13:10:18.774Z,24.68
2023-05-25T13:11:50.489Z,24.79
2023-05-25T13:13:22.250Z,24.91
2023-05-25T13:14:54.105Z,25.07
2023-05-25T13:16:26.223Z,25.21
2023-05-25T13:17:58.909Z,25.25
2023-05-25T13:19:30.903Z,25.26
2023-05-25T13:21:02.887Z,25.27
2023-05-25T13:22:35.096Z,25.26
2023-05-25T13:24:07.596Z,25.22
2023-05-25T13:25:39.688Z,25.13
2023-05-25T13:27:12.105Z,25.10
2023-05-25T13:28:44.262Z,25.10
2023-05-25T13:30:16.026Z,25.13
2023-05-25T13:31:48.419Z,25.12
2023-05-25T13:33:21.865Z,25.11
2023-05-25T13:35:00.158Z,25.04
2023-05-25T13:36:35.420Z,25.02
2023-05-25T13:38:07.244Z,25.15
2023-05-25T13:39:39.189Z,25.30
2023-05-25T13:41:11.648Z,25.39
2023-05-25T13:42:43.195Z,25.25
2023-05-25T13:44:17.395Z,25.16
2023-05-25T13:45:50.043Z,25.07
2023-05-25T13:47:21.841Z,25.04
2023-05-25T13:48:53.627Z,25.00
2023-05-25T13:50:25.668Z,25.03
2023-05-25T13:51:58.071Z,25.03
2023-05-25T13:53:29.772Z,25.09
2023-05-25T13:55:01.693Z,25.24
2023-05-25T13:56:33.489Z,25.25
2023-05-25T13:58:05.418Z,25.29
2023-05-25T13:59:38.187Z,25.43
2023-05-25T14:01:11.309Z,25.59
2023-05-25T14:03:02.198Z,25.77
2023-05-25T14:04:34.065Z,25.94
2023-05-25T14:06:25.262Z,25.90
2023-05-25T14:07:56.987Z,25.86
2023-05-25T14:09:28.821Z,25.82
2023-05-25T14:11:00.609Z,25.81
2023-05-25T14:12:32.978Z,25.80
2023-05-25T14:17:24.338Z,26.06
2023-05-25T14:18:57.072Z,26.14
2023-05-25T14:20:28.824Z,26.16
2023-05-25T14:22:12.360Z,26.16
2023-05-25T14:23:44.803Z,26.14
2023-05-25T14:25:16.756Z,25.95
2023-05-25T14:26:48.325Z,25.66
2023-05-25T14:28:20.045Z,25.52
2023-05-25T14:29:51.860Z,25.48
2023-05-25T14:31:23.578Z,25.47
2023-05-25T14:32:55.352Z,25.64
2023-05-25T14:34:27.001Z,25.82
2023-05-25T14:35:58.727Z,25.98
2023-05-25T14:37:30.327Z,25.99
2023-05-25T14:39:01.953Z,26.12
2023-05-25T14:40:34.613Z,26.09
2023-05-25T14:42:06.894Z,26.16
2023-05-25T14:43:38.542Z,26.21
2023-05-25T14:45:11.645Z,26.13
2023-05-25T14:46:44.104Z,26.09
2023-05-25T14:48:17.256Z,26.16
2023-05-25T14:49:48.908Z,26.13
2023-05-25T14:51:20.492Z,25.97
2023-05-25T14:52:52.136Z,25.85
2023-05-25T14:54:23.760Z,25.79
2023-05-25T14:55:55.331Z,25.77
2023-05-25T14:57:27.418Z,25.79
2023-05-25T14:58:59.046Z,25.86
2023-05-25T15:00:31.121Z,25.95
2023-05-25T15:02:02.944Z,26.02
2023-05-25T15:03:34.725Z,26.11
2023-05-25T15:05:06.551Z,26.18
2023-05-25T15:06:39.549Z,26.26
2023-05-25T15:08:11.266Z,26.22
2023-05-25T15:09:43.734Z,26.17
2023-05-25T15:11:15.531Z,26.13
2023-05-25T15:12:47.659Z,26.07
2023-05-25T15:14:19.297Z,25.90
2023-05-25T15:15:54.713Z,25.79
2023-05-25T15:17:26.359Z,25.63
2023-05-25T15:18:57.997Z,25.42
2023-05-25T15:20:29.602Z,25.05
2023-05-25T15:22:02.149Z,24.78
2023-05-25T15:23:33.968Z,24.63
2023-05-25T15:25:06.537Z,24.45
2023-05-25T15:26:39.185Z,24.26
2023-05-25T15:28:10.863Z,24.01
2023-05-25T15:29:42.562Z,23.64
2023-05-25T15:31:14.208Z,23.35
2023-05-25T15:32:45.976Z,23.00
2023-05-25T15:34:17.701Z,22.75
2023-05-25T15:35:49.300Z,22.57
2023-05-25T15:37:20.938Z,22.43
2023-05-25T15:38:52.588Z,22.30
2023-05-25T15:40:24.575Z,22.17
2023-05-25T15:41:56.399Z,22.08
2023-05-25T15:43:28.003Z,22.02
2023-05-25T15:44:59.601Z,21.93
2023-05-25T15:46:31.334Z,21.86
2023-05-25T15:48:04.148Z,21.77
2023-05-25T15:49:37.350Z,21.70
2023-05-25T15:51:08.973Z,21.64
2023-05-25T15:52:41.760Z,21.62
2023-05-25T15:54:14.562Z,21.64
2023-05-25T15:55:46.725Z,21.66
2023-05-25T15:57:19.189Z,21.71
2023-05-25T15:58:50.829Z,21.73
2023-05-25T16:00:22.558Z,21.77
2023-05-25T16:01:54.254Z,21.84
2023-05-25T16:03:25.990Z,21.88
2023-05-25T16:04:57.910Z,21.92
2023-05-25T16:06:29.946Z,21.95
2023-05-25T16:08:01.602Z,21.91
2023-05-25T16:09:33.197Z,21.91
2023-05-25T16:11:04.980Z,21.94
2023-05-25T16:12:36.545Z,21.93
2023-05-25T16:14:08.296Z,21.86
2023-05-25T16:15:40.274Z,21.78
2023-05-25T16:17:12.499Z,21.76
2023-05-25T16:18:44.786Z,21.78
2023-05-25T16:20:16.795Z,21.76
2023-05-25T16:21:48.414Z,21.83
2023-05-25T16:23:20.044Z,21.89
2023-05-25T16:24:51.800Z,21.93
2023-05-25T16:26:24.219Z,22.00
2023-05-25T16:27:55.809Z,22.06
2023-05-25T16:29:27.419Z,22.14
2023-05-25T16:30:59.075Z,22.19
2023-05-25T16:32:30.849Z,22.23
2023-05-25T16:34:05.714Z,22.26
2023-05-25T16:35:37.365Z,22.30
2023-05-25T16:37:09.019Z,22.36
2023-05-25T16:38:41.158Z,22.31
2023-05-25T16:40:13.643Z,22.25
2023-05-25T16:41:45.394Z,22.19
2023-05-25T16:43:17.249Z,22.04
2023-05-25T16:44:49.708Z,21.96
2023-05-25T16:46:21.789Z,21.90
2023-05-25T16:47:53.851Z,21.84
2023-05-25T16:49:25.551Z,21.79
2023-05-25T16:50:57.528Z,21.73
2023-05-25T16:52:29.242Z,21.66
2023-05-25T16:54:00.815Z,21.63
2023-05-25T16:55:33.902Z,21.63
2023-05-25T16:57:06.965Z,21.63
2023-05-25T16:58:38.929Z,21.64
2023-05-25T17:00:11.025Z,21.64
2023-05-25T17:01:43.402Z,21.59
2023-05-25T17:03:15.614Z,21.54
2023-05-25T17:04:47.461Z,21.45
2023-05-25T17:06:19.254Z,21.44
2023-05-25T17:07:51.529Z,21.42
2023-05-25T17:09:25.403Z,21.41
2023-05-25T17:10:57.164Z,21.39
2023-05-25T17:12:29.038Z,21.34
2023-05-25T17:14:00.612Z,21.31
2023-05-25T17:15:32.732Z,21.26
2023-05-25T17:17:04.407Z,21.24
2023-05-25T17:18:36.473Z,21.23
2023-05-25T17:20:08.195Z,21.20
2023-05-25T17:21:39.904Z,21.16
2023-05-25T17:23:11.702Z,21.11
2023-05-25T17:24:43.392Z,21.12
2023-05-25T17:26:15.216Z,21.07
2023-05-25T17:27:46.903Z,21.07
2023-05-25T17:29:18.722Z,21.06
2023-05-25T17:30:50.832Z,21.02
2023-05-25T17:32:22.711Z,20.99
2023-05-25T17:33:55.313Z,20.96
2023-05-25T17:35:30.091Z,20.89
2023-05-25T17:37:01.807Z,20.82
2023-05-25T17:38:36.981Z,20.79
2023-05-25T17:40:09.117Z,20.86
2023-05-25T17:41:41.563Z,20.91
2023-05-25T17:43:13.670Z,20.96
2023-05-25T17:44:45.731Z,20.99
2023-05-25T17:46:18.900Z,20.98
2023-05-25T17:47:50.638Z,20.96
2023-05-25T17:49:22.257Z,21.01
2023-05-25T17:50:53.973Z,21.02
2023-05-25T17:52:26.382Z,21.06
2023-05-25T17:53:58.030Z,21.10
2023-05-25T17:55:29.593Z,21.14
2023-05-25T17:57:02.420Z,21.14
2023-05-25T17:58:34.121Z,21.13
2023-05-25T18:00:05.972Z,21.15
2023-05-25T18:01:38.491Z,21.16
2023-05-25T18:03:10.477Z,21.16
2023-05-25T18:04:42.289Z,21.16
2023-05-25T18:06:13.905Z,21.14
2023-05-25T18:07:45.655Z,21.14
2023-05-25T18:09:17.948Z,21.11
2023-05-25T18:10:50.766Z,21.08
2023-05-25T18:12:22.446Z,21.05
2023-05-25T18:13:54.123Z,20.97
2023-05-25T18:15:25.751Z,20.84
2023-05-25T18:16:59.922Z,20.78
2023-05-25T18:18:32.231Z,20.67
2023-05-25T18:20:04.489Z,20.54
2023-05-25T18:21:39.745Z,20.43
2023-05-25T18:23:13.566Z,20.34
2023-05-25T18:24:45.416Z,20.22
2023-05-25T18:26:17.235Z,20.13
2023-05-25T18:27:49.089Z,20.09
2023-05-25T18:29:20.798Z,20.12
2023-05-25T18:30:52.456Z,20.13
2023-05-25T18:32:24.105Z,20.10
2023-05-25T18:33:56.291Z,19.98
2023-05-25T18:35:28.200Z,19.90
2023-05-25T18:36:59.922Z,19.87
2023-05-25T18:38:31.680Z,19.89
2023-05-25T18:40:03.801Z,19.93
2023-05-25T18:41:35.842Z,19.96
2023-05-25T18:43:08.453Z,19.97
2023-05-25T18:44:40.490Z,19.96
2023-05-25T18:46:12.082Z,19.93
2023-05-25T18:47:44.229Z,19.92
2023-05-25T18:49:16.025Z,19.91
2023-05-25T18:50:47.764Z,19.87
2023-05-25T18:52:19.425Z,19.89
2023-05-25T18:53:51.116Z,19.88
2023-05-25T18:55:23.532Z,19.87
2023-05-25T18:56:55.279Z,19.89
2023-05-25T18:58:27.195Z,19.80
2023-05-25T18:59:59.476Z,19.79
2023-05-25T19:01:31.836Z,19.70
2023-05-25T19:03:04.062Z,19.67
2023-05-25T19:04:36.305Z,19.59
2023-05-25T19:06:08.344Z,19.52
2023-05-25T19:07:54.890Z,19.46
2023-05-25T19:09:30.818Z,19.35
2023-05-25T19:11:02.516Z,19.18
2023-05-25T19:12:34.182Z,19.12
2023-05-25T19:14:06.094Z,19.02
2023-05-25T19:15:37.708Z,18.92
2023-05-25T19:17:09.359Z,18.81
2023-05-25T19:18:42.809Z,18.73
2023-05-25T19:20:15.150Z,18.65
2023-05-25T19:21:46.847Z,18.57
2023-05-25T19:23:19.627Z,18.49
2023-05-25T19:25:00.251Z,18.41
2023-05-25T19:26:34.485Z,18.36
2023-05-25T19:28:06.962Z,18.28
2023-05-25T19:29:38.760Z,18.21
2023-05-25T19:31:10.717Z,18.17
2023-05-25T19:32:46.424Z,18.14
2023-05-25T19:34:19.604Z,18.08
2023-05-25T19:35:52.343Z,18.07
2023-05-25T19:37:24.343Z,18.09
2023-05-25T19:38:56.326Z,18.08
2023-05-25T19:40:29.009Z,18.09
2023-05-25T19:42:03.677Z,18.08
2023-05-25T19:43:37.824Z,18.09
2023-05-25T19:45:09.649Z,18.10
2023-05-25T19:46:43.069Z,18.05
2023-05-25T19:48:16.102Z,18.05
2023-05-25T19:49:48.655Z,18.07
2023-05-25T19:51:21.584Z,18.08
2023-05-25T19:52:55.729Z,18.05
2023-05-25T19:54:27.314Z,18.02
2023-05-25T19:55:59.371Z,17.99
2023-05-25T19:57:31.252Z,17.99
2023-05-25T19:59:03.141Z,18.01
2023-05-25T20:00:35.339Z,18.08
2023-05-25T20:02:07.342Z,18.16
2023-05-25T20:03:39.031Z,18.29
2023-05-25T20:05:11.744Z,18.38
2023-05-25T20:06:43.371Z,18.45
2023-05-25T20:08:15.003Z,18.50
2023-05-25T20:09:46.709Z,18.58
2023-05-25T20:11:18.310Z,18.63
2023-05-25T20:12:49.962Z,18.63
2023-05-25T20:14:21.817Z,18.63
2023-05-25T20:15:53.484Z,18.61
2023-05-25T20:17:25.204Z,18.59
2023-05-25T20:18:56.917Z,18.58
2023-05-25T20:20:28.820Z,18.57
2023-05-25T20:22:01.954Z,18.56
2023-05-25T20:23:33.550Z,18.57
2023-05-25T20:25:05.285Z,18.61
2023-05-25T20:26:37.565Z,18.59
2023-05-25T20:28:09.371Z,18.59
2023-05-25T20:29:41.649Z,18.60